createdAt,value
2023-01-03T00:00:21.856Z,1016.97
2023-01-03T00:01:20.927Z,1016.98
2023-01-03T00:02:20.985Z,1016.99
2023-01-03T00:03:20.912Z,1017.01
2023-01-03T00:04:20.967Z,1017.01
2023-01-03T00:05:20.909Z,1017.00
2023-01-03T00:06:20.909Z,1017.06
2023-01-03T00:07:23.787Z,1017.04
2023-01-03T00:08:20.903Z,1017.05
2023-01-03T00:09:20.921Z,1017.08
2023-01-03T00:10:20.905Z,1017.13
2023-01-03T00:11:21.863Z,1017.08
2023-01-03T00:12:23.332Z,1017.09
2023-01-03T00:13:20.902Z,1017.10
2023-01-03T00:14:20.888Z,1017.11
2023-01-03T00:15:20.921Z,1017.11
2023-01-03T00:16:21.045Z,1017.05
2023-01-03T00:17:22.868Z,1017.07
2023-01-03T00:18:20.909Z,1017.10
2023-01-03T00:19:20.900Z,1017.16
2023-01-03T00:20:21.277Z,1017.18
2023-01-03T00:21:20.889Z,1017.22
2023-01-03T00:22:21.096Z,1017.26
2023-01-03T00:23:20.872Z,1017.27
2023-01-03T00:24:20.876Z,1017.28
2023-01-03T00:25:20.901Z,1017.28
2023-01-03T00:26:20.886Z,1017.37
2023-01-03T00:27:20.874Z,1017.24
2023-01-03T00:28:20.886Z,1017.36
2023-01-03T00:29:20.880Z,1017.30
2023-01-03T00:30:20.963Z,1017.31
2023-01-03T00:31:20.968Z,1017.32
2023-01-03T00:32:20.899Z,1017.38
2023-01-03T00:33:20.870Z,1017.43
2023-01-03T00:34:20.883Z,1017.44
2023-01-03T00:35:20.870Z,1017.45
2023-01-03T00:36:20.891Z,1017.49
2023-01-03T00:37:20.860Z,1017.52
2023-01-03T00:38:20.863Z,1017.49
2023-01-03T00:39:20.866Z,1017.52
2023-01-03T00:40:20.864Z,1017.61
2023-01-03T00:41:20.866Z,1017.57
2023-01-03T00:42:20.886Z,1017.54
2023-01-03T00:43:20.868Z,1017.62
2023-01-03T00:44:20.853Z,1017.57
2023-01-03T00:45:23.400Z,1017.55
2023-01-03T00:46:20.918Z,1017.63
2023-01-03T00:47:20.850Z,1017.65
2023-01-03T00:48:20.920Z,1017.70
2023-01-03T00:49:20.870Z,1017.69
2023-01-03T00:50:20.846Z,1017.69
2023-01-03T00:51:20.855Z,1017.72
2023-01-03T00:52:20.856Z,1017.78
2023-01-03T00:53:20.862Z,1017.75
2023-01-03T00:54:20.882Z,1017.78
2023-01-03T00:55:20.871Z,1017.79
2023-01-03T00:56:20.823Z,1017.77
2023-01-03T00:57:20.825Z,1017.84
2023-01-03T00:58:20.840Z,1017.73
2023-01-03T00:59:38.130Z,1017.83
2023-01-03T01:02:01.490Z,1017.86
2023-01-03T01:04:55.413Z,1017.89
2023-01-03T01:06:06.268Z,1017.91
2023-01-03T01:07:08.294Z,1017.82
2023-01-03T01:08:08.365Z,1017.88
2023-01-03T01:08:55.333Z,1017.89
2023-01-03T01:10:05.887Z,1017.92
2023-01-03T01:10:55.323Z,1017.90
2023-01-03T01:11:55.299Z,1017.98
2023-01-03T01:13:06.376Z,1017.97
2023-01-03T01:13:55.335Z,1017.99
2023-01-03T01:14:55.307Z,1018.03
2023-01-03T01:15:55.328Z,1018.11
2023-01-03T01:17:05.929Z,1018.11
2023-01-03T01:18:11.005Z,1018.14
2023-01-03T01:20:35.694Z,1018.20
2023-01-03T01:23:17.076Z,1018.33
2023-01-03T01:26:37.374Z,1018.32
2023-01-03T01:29:19.900Z,1018.45
2023-01-03T01:30:19.834Z,1018.46
2023-01-03T01:31:19.917Z,1018.45
2023-01-03T01:32:19.840Z,1018.42
2023-01-03T01:33:19.909Z,1018.47
2023-01-03T01:34:19.920Z,1018.50
2023-01-03T01:35:19.837Z,1018.48
2023-01-03T01:36:19.848Z,1018.46
2023-01-03T01:37:19.872Z,1018.45
2023-01-03T01:38:19.900Z,1018.41
2023-01-03T01:39:19.826Z,1018.44
2023-01-03T01:40:19.851Z,1018.49
2023-01-03T01:41:19.811Z,1018.50
2023-01-03T01:42:20.529Z,1018.48
2023-01-03T01:43:19.819Z,1018.52
2023-01-03T01:44:19.828Z,1018.51
2023-01-03T01:45:19.799Z,1018.56
2023-01-03T01:46:19.842Z,1018.59
2023-01-03T01:47:19.816Z,1018.53
2023-01-03T01:48:19.831Z,1018.62
2023-01-03T01:49:19.819Z,1018.56
2023-01-03T01:50:19.818Z,1018.58
2023-01-03T01:51:19.805Z,1018.64
2023-01-03T01:52:19.809Z,1018.61
2023-01-03T01:53:19.805Z,1018.53
2023-01-03T01:54:19.819Z,1018.65
2023-01-03T01:55:19.793Z,1018.61
2023-01-03T01:56:19.785Z,1018.63
2023-01-03T01:57:19.787Z,1018.60
2023-01-03T01:58:19.779Z,1018.65
2023-01-03T01:59:19.813Z,1018.67
2023-01-03T02:00:19.790Z,1018.63
2023-01-03T02:01:19.866Z,1018.67
2023-01-03T02:02:19.970Z,1018.67
2023-01-03T02:03:19.833Z,1018.72
2023-01-03T02:04:19.804Z,1018.65
2023-01-03T02:05:19.777Z,1018.71
2023-01-03T02:06:19.774Z,1018.73
2023-01-03T02:07:19.774Z,1018.72
2023-01-03T02:08:19.768Z,1018.74
2023-01-03T02:09:19.788Z,1018.70
2023-01-03T02:10:19.789Z,1018.70
2023-01-03T02:11:19.784Z,1018.72
2023-01-03T02:12:19.769Z,1018.72
2023-01-03T02:13:19.784Z,1018.75
2023-01-03T02:14:19.754Z,1018.75
2023-01-03T02:15:19.767Z,1018.76
2023-01-03T02:16:19.952Z,1018.78
2023-01-03T02:17:19.752Z,1018.77
2023-01-03T02:18:19.760Z,1018.79
2023-01-03T02:19:19.754Z,1018.76
2023-01-03T02:20:19.755Z,1018.84
2023-01-03T02:21:20.412Z,1018.85
2023-01-03T02:22:19.742Z,1018.83
2023-01-03T02:23:19.748Z,1018.85
2023-01-03T02:24:19.758Z,1018.92
2023-01-03T02:25:19.745Z,1018.95
2023-01-03T02:26:19.755Z,1018.90
2023-01-03T02:27:19.763Z,1018.95
2023-01-03T02:28:19.739Z,1018.97
2023-01-03T02:29:19.747Z,1019.03
2023-01-03T02:30:19.758Z,1019.00
2023-01-03T02:31:19.773Z,1019.02
2023-01-03T02:32:19.762Z,1019.04
2023-01-03T02:33:19.727Z,1019.04
2023-01-03T02:34:19.755Z,1019.09
2023-01-03T02:35:19.749Z,1019.05
2023-01-03T02:36:19.745Z,1019.05
2023-01-03T02:37:19.727Z,1019.07
2023-01-03T02:38:19.713Z,1019.10
2023-01-03T02:39:23.646Z,1019.09
2023-01-03T02:40:19.715Z,1019.10
2023-01-03T02:41:19.712Z,1019.08
2023-01-03T02:42:19.730Z,1019.13
2023-01-03T02:43:19.708Z,1019.10
2023-01-03T02:44:19.706Z,1019.13
2023-01-03T02:45:19.730Z,1019.14
2023-01-03T02:46:19.760Z,1019.14
2023-01-03T02:47:19.717Z,1019.16
2023-01-03T02:48:19.703Z,1019.17
2023-01-03T02:49:19.705Z,1019.21
2023-01-03T02:50:19.685Z,1019.18
2023-01-03T02:51:19.707Z,1019.23
2023-01-03T02:52:19.685Z,1019.23
2023-01-03T02:53:19.719Z,1019.24
2023-01-03T02:54:19.677Z,1019.28
2023-01-03T02:55:19.690Z,1019.28
2023-01-03T02:56:19.687Z,1019.31
2023-01-03T02:57:19.696Z,1019.32
2023-01-03T02:58:19.689Z,1019.32
2023-01-03T02:59:19.684Z,1019.41
2023-01-03T03:00:19.678Z,1019.33
2023-01-03T03:01:19.792Z,1019.34
2023-01-03T03:02:19.770Z,1019.39
2023-01-03T03:03:19.791Z,1019.37
2023-01-03T03:04:19.667Z,1019.36
2023-01-03T03:05:19.665Z,1019.38
2023-01-03T03:06:19.671Z,1019.39
2023-01-03T03:07:19.665Z,1019.41
2023-01-03T03:08:19.674Z,1019.46
2023-01-03T03:09:19.706Z,1019.43
2023-01-03T03:10:19.659Z,1019.42
2023-01-03T03:11:19.647Z,1019.39
2023-01-03T03:12:19.652Z,1019.41
2023-01-03T03:13:19.654Z,1019.43
2023-01-03T03:14:19.635Z,1019.41
2023-01-03T03:15:19.663Z,1019.41
2023-01-03T03:16:19.684Z,1019.45
2023-01-03T03:17:19.650Z,1019.47
2023-01-03T03:18:19.637Z,1019.41
2023-01-03T03:19:19.640Z,1019.39
2023-01-03T03:20:20.435Z,1019.38
2023-01-03T03:21:19.642Z,1019.39
2023-01-03T03:22:19.640Z,1019.39
2023-01-03T03:23:19.651Z,1019.39
2023-01-03T03:24:20.451Z,1019.39
2023-01-03T03:25:19.661Z,1019.41
2023-01-03T03:26:19.649Z,1019.41
2023-01-03T03:27:19.633Z,1019.45
2023-01-03T03:28:19.629Z,1019.39
2023-01-03T03:29:19.620Z,1019.45
2023-01-03T03:30:19.679Z,1019.43
2023-01-03T03:31:19.677Z,1019.43
2023-01-03T03:32:19.627Z,1019.45
2023-01-03T03:33:19.612Z,1019.45
2023-01-03T03:34:19.605Z,1019.45
2023-01-03T03:35:19.612Z,1019.46
2023-01-03T03:36:19.739Z,1019.48
2023-01-03T03:37:19.610Z,1019.52
2023-01-03T03:38:19.712Z,1019.53
2023-01-03T03:39:19.597Z,1019.55
2023-01-03T03:40:19.613Z,1019.51
2023-01-03T03:41:19.613Z,1019.54
2023-01-03T03:42:19.591Z,1019.58
2023-01-03T03:43:19.607Z,1019.59
2023-01-03T03:44:19.606Z,1019.63
2023-01-03T03:45:19.602Z,1019.64
2023-01-03T03:46:19.633Z,1019.70
2023-01-03T03:47:19.620Z,1019.70
2023-01-03T03:48:19.721Z,1019.72
2023-01-03T03:49:19.585Z,1019.72
2023-01-03T03:50:19.598Z,1019.68
2023-01-03T03:51:19.634Z,1019.76
2023-01-03T03:52:19.604Z,1019.79
2023-01-03T03:53:19.598Z,1019.82
2023-01-03T03:54:19.603Z,1019.73
2023-01-03T03:55:19.576Z,1019.81
2023-01-03T03:56:19.569Z,1019.78
2023-01-03T03:57:19.568Z,1019.83
2023-01-03T03:58:20.316Z,1019.83
2023-01-03T03:59:19.580Z,1019.82
2023-01-03T04:00:19.589Z,1019.84
2023-01-03T04:01:19.613Z,1019.88
2023-01-03T04:02:19.695Z,1019.87
2023-01-03T04:03:19.625Z,1019.89
2023-01-03T04:04:19.588Z,1019.89
2023-01-03T04:05:19.542Z,1019.87
2023-01-03T04:06:19.550Z,1019.92
2023-01-03T04:07:19.565Z,1019.92
2023-01-03T04:08:19.532Z,1019.92
2023-01-03T04:09:19.556Z,1019.97
2023-01-03T04:10:19.543Z,1019.97
2023-01-03T04:11:19.545Z,1019.93
2023-01-03T04:12:19.586Z,1020.00
2023-01-03T04:13:19.536Z,1020.04
2023-01-03T04:14:19.565Z,1019.97
2023-01-03T04:15:19.543Z,1020.00
2023-01-03T04:16:19.581Z,1020.11
2023-01-03T04:17:19.522Z,1020.04
2023-01-03T04:18:19.511Z,1020.02
2023-01-03T04:19:19.525Z,1020.13
2023-01-03T04:20:19.550Z,1020.13
2023-01-03T04:21:21.120Z,1020.11
2023-01-03T04:22:19.526Z,1020.11
2023-01-03T04:23:19.555Z,1020.10
2023-01-03T04:24:19.529Z,1020.10
2023-01-03T04:25:19.540Z,1020.15
2023-01-03T04:26:20.309Z,1020.18
2023-01-03T04:27:19.489Z,1020.21
2023-01-03T04:28:19.484Z,1020.18
2023-01-03T04:29:19.499Z,1020.23
2023-01-03T04:30:19.505Z,1020.22
2023-01-03T04:31:19.562Z,1020.24
2023-01-03T04:32:19.497Z,1020.29
2023-01-03T04:33:19.508Z,1020.29
2023-01-03T04:34:19.486Z,1020.30
2023-01-03T04:35:19.525Z,1020.29
2023-01-03T04:36:19.510Z,1020.27
2023-01-03T04:37:19.916Z,1020.29
2023-01-03T04:38:19.464Z,1020.35
2023-01-03T04:39:19.512Z,1020.28
2023-01-03T04:40:19.503Z,1020.34
2023-01-03T04:41:19.458Z,1020.33
2023-01-03T04:42:19.458Z,1020.39
2023-01-03T04:43:19.465Z,1020.39
2023-01-03T04:44:19.469Z,1020.42
2023-01-03T04:45:19.473Z,1020.43
2023-01-03T04:46:19.551Z,1020.41
2023-01-03T04:47:19.486Z,1020.44
2023-01-03T04:48:19.506Z,1020.46
2023-01-03T04:49:19.440Z,1020.48
2023-01-03T04:50:19.451Z,1020.44
2023-01-03T04:51:19.434Z,1020.48
2023-01-03T04:52:19.452Z,1020.53
2023-01-03T04:53:19.437Z,1020.50
2023-01-03T04:54:19.464Z,1020.49
2023-01-03T04:55:19.437Z,1020.53
2023-01-03T04:56:19.424Z,1020.55
2023-01-03T04:57:19.460Z,1020.54
2023-01-03T04:58:19.437Z,1020.57
2023-01-03T04:59:19.442Z,1020.53
2023-01-03T05:00:19.449Z,1020.56
2023-01-03T05:01:19.587Z,1020.60
2023-01-03T05:02:19.577Z,1020.59
2023-01-03T05:03:25.630Z,1020.61
2023-01-03T05:04:19.440Z,1020.64
2023-01-03T05:05:19.406Z,1020.65
2023-01-03T05:06:19.419Z,1020.66
2023-01-03T05:07:19.436Z,1020.62
2023-01-03T05:08:19.451Z,1020.66
2023-01-03T05:09:19.520Z,1020.67
2023-01-03T05:10:19.411Z,1020.67
2023-01-03T05:11:19.391Z,1020.70
2023-01-03T05:12:19.442Z,1020.68
2023-01-03T05:13:19.452Z,1020.71
2023-01-03T05:14:19.392Z,1020.72
2023-01-03T05:15:19.398Z,1020.73
2023-01-03T05:16:19.461Z,1020.72
2023-01-03T05:17:19.386Z,1020.75
2023-01-03T05:18:19.391Z,1020.76
2023-01-03T05:19:19.405Z,1020.78
2023-01-03T05:20:19.432Z,1020.74
2023-01-03T05:21:19.387Z,1020.77
2023-01-03T05:22:19.383Z,1020.81
2023-01-03T05:23:19.398Z,1020.76
2023-01-03T05:24:19.382Z,1020.83
2023-01-03T05:25:19.359Z,1020.80
2023-01-03T05:26:19.413Z,1020.84
2023-01-03T05:27:19.362Z,1020.83
2023-01-03T05:28:19.394Z,1020.86
2023-01-03T05:29:19.372Z,1020.87
2023-01-03T05:30:19.393Z,1020.85
2023-01-03T05:31:19.493Z,1020.85
2023-01-03T05:32:19.702Z,1020.80
2023-01-03T05:33:19.349Z,1020.82
2023-01-03T05:34:19.361Z,1020.82
2023-01-03T05:59:28.623Z,1021.18
2023-01-03T06:00:29.008Z,1021.19
2023-01-03T06:01:28.157Z,1021.20
2023-01-03T06:02:28.173Z,1021.18
2023-01-03T06:03:28.119Z,1021.26
2023-01-03T06:04:28.904Z,1021.23
2023-01-03T06:05:28.960Z,1021.20
2023-01-03T06:06:28.080Z,1021.23
2023-01-03T06:07:28.088Z,1021.27
2023-01-03T06:08:28.074Z,1021.28
2023-01-03T06:09:28.105Z,1021.27
2023-01-03T06:10:28.078Z,1021.28
2023-01-03T06:11:28.073Z,1021.26
2023-01-03T06:12:28.056Z,1021.30
2023-01-03T06:13:28.089Z,1021.29
2023-01-03T06:14:28.080Z,1021.30
2023-01-03T06:15:28.055Z,1021.31
2023-01-03T06:16:28.085Z,1021.33
2023-01-03T06:17:28.125Z,1021.37
2023-01-03T06:18:28.057Z,1021.37
2023-01-03T06:19:28.075Z,1021.33
2023-01-03T06:20:28.045Z,1021.36
2023-01-03T06:21:28.039Z,1021.33
2023-01-03T06:22:28.050Z,1021.38
2023-01-03T06:23:28.037Z,1021.35
2023-01-03T06:24:28.067Z,1021.36
2023-01-03T06:25:28.044Z,1021.39
2023-01-03T06:26:28.040Z,1021.43
2023-01-03T06:27:28.026Z,1021.43
2023-01-03T06:28:28.028Z,1021.42
2023-01-03T06:29:28.035Z,1021.44
2023-01-03T06:30:28.057Z,1021.43
2023-01-03T06:31:28.170Z,1021.39
2023-01-03T06:32:28.027Z,1021.44
2023-01-03T06:33:28.026Z,1021.43
2023-01-03T06:34:28.027Z,1021.46
2023-01-03T06:35:28.019Z,1021.42
2023-01-03T06:36:28.013Z,1021.42
2023-01-03T06:37:28.045Z,1021.48
2023-01-03T06:38:28.035Z,1021.49
2023-01-03T06:39:28.005Z,1021.49
2023-01-03T06:40:36.185Z,1021.50
2023-01-03T06:41:28.008Z,1021.43
2023-01-03T06:42:27.996Z,1021.45
2023-01-03T06:43:27.995Z,1021.49
2023-01-03T06:44:27.996Z,1021.47
2023-01-03T06:45:27.986Z,1021.41
2023-01-03T06:46:28.050Z,1021.49
2023-01-03T06:47:28.033Z,1021.50
2023-01-03T06:48:28.138Z,1021.49
2023-01-03T06:49:27.961Z,1021.56
2023-01-03T06:50:27.976Z,1021.53
2023-01-03T06:51:27.963Z,1021.54
2023-01-03T06:52:27.964Z,1021.53
2023-01-03T06:53:27.970Z,1021.57
2023-01-03T06:54:27.955Z,1021.59
2023-01-03T06:55:27.974Z,1021.62
2023-01-03T06:56:27.966Z,1021.64
2023-01-03T06:57:27.972Z,1021.66
2023-01-03T06:58:28.031Z,1021.69
2023-01-03T06:59:27.971Z,1021.69
2023-01-03T07:00:27.948Z,1021.73
2023-01-03T07:01:28.065Z,1021.75
2023-01-03T07:02:28.152Z,1021.77
2023-01-03T07:03:27.929Z,1021.76
2023-01-03T07:04:27.997Z,1021.77
2023-01-03T07:05:27.931Z,1021.77
2023-01-03T07:06:27.944Z,1021.74
2023-01-03T07:07:27.941Z,1021.79
2023-01-03T07:08:27.958Z,1021.76
2023-01-03T07:09:27.947Z,1021.79
2023-01-03T07:10:27.912Z,1021.78
2023-01-03T07:11:27.906Z,1021.79
2023-01-03T07:12:27.914Z,1021.81
2023-01-03T07:13:27.928Z,1021.81
2023-01-03T07:14:27.903Z,1021.83
2023-01-03T07:15:27.978Z,1021.87
2023-01-03T07:16:27.961Z,1021.83
2023-01-03T07:17:27.899Z,1021.90
2023-01-03T07:18:27.912Z,1021.86
2023-01-03T07:19:27.912Z,1021.92
2023-01-03T07:20:27.903Z,1021.93
2023-01-03T07:21:27.889Z,1021.98
2023-01-03T07:22:27.882Z,1021.97
2023-01-03T07:23:27.883Z,1021.97
2023-01-03T07:24:27.885Z,1021.99
2023-01-03T07:25:27.873Z,1022.01
2023-01-03T07:26:27.872Z,1022.04
2023-01-03T07:27:27.882Z,1022.04
2023-01-03T07:28:27.894Z,1022.06
2023-01-03T07:29:27.890Z,1022.04
2023-01-03T07:30:27.911Z,1022.04
2023-01-03T07:31:27.964Z,1022.11
2023-01-03T07:32:27.862Z,1022.09
2023-01-03T07:33:27.856Z,1022.10
2023-01-03T07:34:27.895Z,1022.10
2023-01-03T07:35:27.884Z,1022.10
2023-01-03T07:36:27.861Z,1022.07
2023-01-03T07:37:27.854Z,1022.13
2023-01-03T07:38:27.856Z,1022.12
2023-01-03T07:39:27.836Z,1022.17
2023-01-03T07:40:27.843Z,1022.19
2023-01-03T07:41:27.860Z,1022.18
2023-01-03T07:42:27.832Z,1022.19
2023-01-03T07:43:27.836Z,1022.18
2023-01-03T07:44:27.825Z,1022.18
2023-01-03T07:45:27.842Z,1022.16
2023-01-03T07:46:27.856Z,1022.16
2023-01-03T07:47:27.844Z,1022.12
2023-01-03T07:48:27.832Z,1022.23
2023-01-03T07:49:27.844Z,1022.17
2023-01-03T07:50:27.853Z,1022.21
2023-01-03T07:51:27.819Z,1022.19
2023-01-03T07:52:27.836Z,1022.23
2023-01-03T07:53:27.832Z,1022.20
2023-01-03T07:54:27.824Z,1022.19
2023-01-03T07:55:27.799Z,1022.22
2023-01-03T07:56:27.802Z,1022.25
2023-01-03T07:57:27.808Z,1022.20
2023-01-03T07:58:27.819Z,1022.15
2023-01-03T07:59:27.810Z,1022.21
2023-01-03T08:00:27.808Z,1022.23
2023-01-03T08:01:27.899Z,1022.25
2023-01-03T08:02:27.935Z,1022.22
2023-01-03T08:03:27.817Z,1022.26
2023-01-03T08:04:27.832Z,1022.30
2023-01-03T08:05:27.773Z,1022.29
2023-01-03T08:08:12.615Z,1022.32
2023-01-03T08:09:13.416Z,1022.34
2023-01-03T08:10:13.320Z,1022.39
2023-01-03T08:13:49.955Z,1022.47
2023-01-03T08:14:50.865Z,1022.46
2023-01-03T08:19:49.843Z,1022.52
2023-01-03T08:20:29.073Z,1022.55
2023-01-03T08:21:32.798Z,1022.49
2023-01-03T08:46:58.001Z,1022.90
2023-01-03T08:47:58.603Z,1022.94
2023-01-03T08:48:57.222Z,1022.93
2023-01-03T08:49:57.644Z,1022.90
2023-01-03T08:50:57.786Z,1022.90
2023-01-03T08:51:57.758Z,1022.87
2023-01-03T08:52:57.771Z,1022.94
2023-01-03T08:53:57.291Z,1022.98
2023-01-03T08:54:57.803Z,1022.97
2023-01-03T08:55:57.764Z,1022.95
2023-01-03T08:56:57.709Z,1022.96
2023-01-03T08:57:57.786Z,1023.01
2023-01-03T08:58:57.002Z,1023.01
2023-01-03T08:59:57.814Z,1023.01
2023-01-03T09:00:57.416Z,1022.96
2023-01-03T09:01:57.095Z,1022.92
2023-01-03T09:02:57.216Z,1022.97
2023-01-03T09:03:56.980Z,1022.94
2023-01-03T09:04:57.653Z,1022.95
2023-01-03T09:05:56.905Z,1022.95
2023-01-03T09:06:56.888Z,1023.00
2023-01-03T09:07:56.907Z,1022.99
2023-01-03T09:08:56.880Z,1023.00
2023-01-03T09:09:56.876Z,1022.95
2023-01-03T09:10:56.924Z,1022.99
2023-01-03T09:11:56.874Z,1022.99
2023-01-03T09:12:56.875Z,1022.97
2023-01-03T09:13:56.886Z,1022.97
2023-01-03T09:14:56.888Z,1022.98
2023-01-03T09:15:56.944Z,1023.05
2023-01-03T09:16:56.891Z,1022.98
2023-01-03T09:17:56.877Z,1023.07
2023-01-03T09:18:56.911Z,1023.13
2023-01-03T09:19:56.888Z,1023.16
2023-01-03T09:20:56.873Z,1023.22
2023-01-03T09:21:56.879Z,1023.17
2023-01-03T09:22:56.889Z,1023.25
2023-01-03T09:23:56.891Z,1023.29
2023-01-03T09:24:56.888Z,1023.24
2023-01-03T09:25:56.863Z,1023.24
2023-01-03T09:26:56.918Z,1023.23
2023-01-03T09:27:56.872Z,1023.23
2023-01-03T09:28:56.858Z,1023.24
2023-01-03T09:29:56.898Z,1023.21
2023-01-03T09:30:56.867Z,1023.23
2023-01-03T09:31:56.913Z,1023.24
2023-01-03T09:32:56.878Z,1023.23
2023-01-03T09:33:56.886Z,1023.25
2023-01-03T09:34:56.856Z,1023.18
2023-01-03T09:35:56.853Z,1023.25
2023-01-03T09:36:56.856Z,1023.22
2023-01-03T09:37:56.886Z,1023.22
2023-01-03T09:38:56.849Z,1023.19
2023-01-03T09:39:56.860Z,1023.17
2023-01-03T09:40:56.843Z,1023.19
2023-01-03T09:41:56.839Z,1023.18
2023-01-03T09:42:56.848Z,1023.18
2023-01-03T09:43:56.842Z,1023.15
2023-01-03T09:44:56.851Z,1023.12
2023-01-03T09:45:56.841Z,1023.14
2023-01-03T09:46:56.864Z,1023.11
2023-01-03T09:47:56.848Z,1023.12
2023-01-03T09:48:56.863Z,1023.12
2023-01-03T09:50:29.510Z,1023.13
2023-01-03T09:51:18.516Z,1023.12
2023-01-03T09:51:56.848Z,1023.12
2023-01-03T09:52:56.837Z,1023.16
2023-01-03T09:53:56.836Z,1023.18
2023-01-03T09:54:56.878Z,1023.25
2023-01-03T09:55:56.863Z,1023.29
2023-01-03T09:56:56.841Z,1023.26
2023-01-03T09:57:56.873Z,1023.31
2023-01-03T09:58:56.835Z,1023.26
2023-01-03T09:59:56.861Z,1023.24
2023-01-03T10:00:56.885Z,1023.23
2023-01-03T10:01:57.111Z,1023.28
2023-01-03T10:02:56.968Z,1023.17
2023-01-03T10:03:56.823Z,1023.16
2023-01-03T10:04:56.833Z,1023.19
2023-01-03T10:05:56.844Z,1023.19
2023-01-03T10:06:56.837Z,1023.22
2023-01-03T10:07:56.822Z,1023.22
2023-01-03T10:08:56.835Z,1023.20
2023-01-03T10:09:56.852Z,1023.21
2023-01-03T10:10:56.838Z,1023.17
2023-01-03T10:11:56.901Z,1023.15
2023-01-03T10:12:56.826Z,1023.14
2023-01-03T10:13:56.823Z,1023.20
2023-01-03T10:14:56.828Z,1023.21
2023-01-03T10:15:56.941Z,1023.28
2023-01-03T10:16:56.875Z,1023.30
2023-01-03T10:17:56.816Z,1023.28
2023-01-03T10:18:56.836Z,1023.28
2023-01-03T10:19:56.806Z,1023.29
2023-01-03T10:20:56.834Z,1023.26
2023-01-03T10:21:56.842Z,1023.27
2023-01-03T10:22:56.858Z,1023.22
2023-01-03T10:23:56.815Z,1023.22
2023-01-03T10:24:56.838Z,1023.24
2023-01-03T10:25:56.819Z,1023.21
2023-01-03T10:26:56.846Z,1023.18
2023-01-03T10:27:56.821Z,1023.18
2023-01-03T10:28:56.816Z,1023.19
2023-01-03T10:29:56.817Z,1023.19
2023-01-03T10:31:03.608Z,1023.18
2023-01-03T10:31:56.882Z,1023.20
2023-01-03T10:32:56.830Z,1023.17
2023-01-03T10:33:56.836Z,1023.16
2023-01-03T10:34:56.813Z,1023.16
2023-01-03T10:35:56.836Z,1023.11
2023-01-03T10:36:56.815Z,1023.15
2023-01-03T10:37:56.819Z,1023.12
2023-01-03T10:38:56.839Z,1023.10
2023-01-03T10:39:56.802Z,1023.20
2023-01-03T10:40:56.801Z,1023.15
2023-01-03T10:41:56.813Z,1023.14
2023-01-03T10:42:56.812Z,1023.13
2023-01-03T10:43:56.818Z,1023.10
2023-01-03T10:44:56.825Z,1023.13
2023-01-03T10:45:56.858Z,1023.14
2023-01-03T10:46:56.834Z,1023.14
2023-01-03T10:47:56.823Z,1023.14
2023-01-03T10:49:56.904Z,1023.12
2023-01-03T10:50:56.805Z,1023.16
2023-01-03T10:51:56.815Z,1023.13
2023-01-03T10:52:56.794Z,1023.08
2023-01-03T10:53:56.817Z,1023.10
2023-01-03T10:54:56.832Z,1023.13
2023-01-03T10:55:56.820Z,1023.18
2023-01-03T10:56:56.804Z,1023.12
2023-01-03T10:57:56.804Z,1023.14
2023-01-03T10:58:56.808Z,1023.13
2023-01-03T10:59:56.839Z,1023.13
2023-01-03T11:00:56.862Z,1023.09
2023-01-03T11:01:57.032Z,1023.10
2023-01-03T11:02:56.977Z,1023.09
2023-01-03T11:03:56.881Z,1023.11
2023-01-03T11:04:56.808Z,1023.12
2023-01-03T11:05:56.801Z,1023.12
2023-01-03T11:06:56.788Z,1023.09
2023-01-03T11:07:56.800Z,1023.09
2023-01-03T11:08:56.791Z,1023.13
2023-01-03T11:09:56.831Z,1023.10
2023-01-03T11:10:56.796Z,1023.11
2023-01-03T11:11:56.805Z,1023.10
2023-01-03T11:12:56.814Z,1023.10
2023-01-03T11:13:56.801Z,1023.06
2023-01-03T11:14:56.893Z,1023.09
2023-01-03T11:15:56.819Z,1023.07
2023-01-03T11:16:56.937Z,1023.07
2023-01-03T11:17:56.799Z,1023.04
2023-01-03T11:18:56.796Z,1023.07
2023-01-03T11:19:56.770Z,1023.08
2023-01-03T11:20:56.811Z,1023.04
2023-01-03T11:21:56.809Z,1023.03
2023-01-03T11:22:56.785Z,1023.04
2023-01-03T11:23:56.771Z,1023.06
2023-01-03T11:24:56.781Z,1023.06
2023-01-03T11:25:56.786Z,1023.03
2023-01-03T11:26:56.792Z,1023.01
2023-01-03T11:27:56.789Z,1023.00
2023-01-03T11:28:56.764Z,1023.03
2023-01-03T11:29:56.786Z,1023.01
2023-01-03T11:30:56.776Z,1023.03
2023-01-03T11:31:56.809Z,1023.06
2023-01-03T11:32:56.771Z,1023.07
2023-01-03T11:33:56.798Z,1023.05
2023-01-03T11:35:21.956Z,1023.03
2023-01-03T12:04:56.086Z,1023.06
2023-01-03T12:05:41.784Z,1023.02
2023-01-03T12:06:44.251Z,1022.98
2023-01-03T12:07:48.896Z,1023.03
2023-01-03T12:08:40.847Z,1023.00
2023-01-03T12:09:41.530Z,1022.98
2023-01-03T12:22:01.914Z,1023.03
2023-01-03T12:23:01.329Z,1023.06
2023-01-03T12:24:01.227Z,1023.05
2023-01-03T12:25:05.538Z,1023.04
2023-01-03T12:26:01.207Z,1023.04
2023-01-03T12:27:01.211Z,1023.10
2023-01-03T12:28:01.216Z,1023.11
2023-01-03T12:29:01.209Z,1023.10
2023-01-03T12:30:01.208Z,1023.05
2023-01-03T12:31:01.206Z,1023.09
2023-01-03T12:32:01.270Z,1023.11
2023-01-03T12:39:06.332Z,1022.93
2023-01-03T12:40:06.321Z,1022.89
2023-01-03T12:41:06.439Z,1022.91
2023-01-03T12:44:50.195Z,1022.94
2023-01-03T12:45:50.145Z,1022.95
2023-01-03T12:48:39.615Z,1022.93
2023-01-03T12:49:39.488Z,1022.95
2023-01-03T12:50:38.907Z,1022.99
2023-01-03T12:51:38.660Z,1022.95
2023-01-03T12:52:39.481Z,1022.99
2023-01-03T12:53:38.622Z,1023.02
2023-01-03T12:54:38.596Z,1022.99
2023-01-03T12:55:38.591Z,1022.98
2023-01-03T12:56:38.624Z,1022.96
2023-01-03T12:57:38.669Z,1022.98
2023-01-03T12:58:39.719Z,1023.01
2023-01-03T12:59:38.629Z,1022.98
2023-01-03T13:00:38.601Z,1023.02
2023-01-03T13:01:38.716Z,1023.02
2023-01-03T13:02:38.829Z,1023.06
2023-01-03T13:03:38.850Z,1023.10
2023-01-03T13:04:38.598Z,1023.06
2023-01-03T13:05:38.595Z,1023.02
2023-01-03T13:06:38.711Z,1022.98
2023-01-03T13:07:38.574Z,1023.00
2023-01-03T13:08:38.626Z,1022.99
2023-01-03T13:09:38.579Z,1022.93
2023-01-03T13:10:48.650Z,1022.91
2023-01-03T13:11:38.630Z,1022.87
2023-01-03T13:12:38.576Z,1022.91
2023-01-03T13:13:38.589Z,1022.87
2023-01-03T13:14:38.601Z,1022.83
2023-01-03T13:15:38.651Z,1022.84
2023-01-03T13:16:38.810Z,1022.86
2023-01-03T13:17:38.581Z,1022.84
2023-01-03T13:18:38.567Z,1022.85
2023-01-03T13:19:38.552Z,1022.83
2023-01-03T13:20:38.549Z,1022.79
2023-01-03T13:21:38.602Z,1022.75
2023-01-03T13:22:38.548Z,1022.80
2023-01-03T13:23:38.551Z,1022.74
2023-01-03T13:24:38.545Z,1022.75
2023-01-03T13:25:38.554Z,1022.72
2023-01-03T13:26:38.556Z,1022.70
2023-01-03T13:27:38.599Z,1022.75
2023-01-03T13:28:38.559Z,1022.75
2023-01-03T13:29:38.575Z,1022.73
2023-01-03T13:30:38.541Z,1022.75
2023-01-03T13:31:38.613Z,1022.77
2023-01-03T13:32:38.664Z,1022.73
2023-01-03T13:33:38.628Z,1022.75
2023-01-03T13:34:38.535Z,1022.77
2023-01-03T13:35:38.563Z,1022.76
2023-01-03T13:36:38.536Z,1022.78
2023-01-03T13:37:38.531Z,1022.79
2023-01-03T13:38:39.519Z,1022.76
2023-01-03T13:39:38.534Z,1022.75
2023-01-03T13:41:16.002Z,1022.84
2023-01-03T13:41:38.643Z,1022.82
2023-01-03T13:42:38.532Z,1022.83
2023-01-03T13:43:40.267Z,1022.88
2023-01-03T13:44:38.549Z,1022.82
2023-01-03T13:45:38.552Z,1022.80
2023-01-03T13:46:38.605Z,1022.79
2023-01-03T13:47:38.522Z,1022.82
2023-01-03T13:48:38.626Z,1022.78
2023-01-03T13:49:39.081Z,1022.80
2023-01-03T13:52:27.255Z,1022.76
2023-01-03T13:53:28.729Z,1022.77
2023-01-03T13:54:27.423Z,1022.76
2023-01-03T13:55:27.258Z,1022.71
2023-01-03T13:56:27.269Z,1022.76
2023-01-03T13:57:27.259Z,1022.74
2023-01-03T13:58:27.235Z,1022.77
2023-01-03T13:59:27.218Z,1022.75
2023-01-03T14:00:27.227Z,1022.72
2023-01-03T14:01:27.279Z,1022.74
2023-01-03T14:02:27.550Z,1022.75
2023-01-03T14:03:27.387Z,1022.80
2023-01-03T14:04:27.242Z,1022.79
2023-01-03T14:05:27.211Z,1022.75
2023-01-03T14:06:27.204Z,1022.78